Time;durP1;ratioP1;P1;durP2;ratioP2;P2;SDS_P1;SDS_P2;PMS_P1;PMS_P2;Temp;Humidity;BMP_temperature;BMP_pressure;BME280_temperature;BME280_humidity;BME280_pressure;Samples;Min_cycle;Max_cycle;Signal;HPM_P1;HPM_P2
2023/05/30 00:00:49;;;;;;;4.28;1.55;;;11.00;99.90;;;;;;5063577;28;20044;-83
2023/05/30 00:03:14;;;;;;;8.02;1.67;;;11.00;99.90;;;;;;5070544;28;20048;-84
2023/05/30 00:05:40;;;;;;;6.25;1.63;;;11.00;99.90;;;;;;5063746;28;20036;-84
2023/05/30 00:08:06;;;;;;;7.70;1.45;;;10.90;99.90;;;;;;5074592;28;20034;-84
2023/05/30 00:10:32;;;;;;;6.25;1.90;;;10.90;99.90;;;;;;5065281;28;20028;-84
2023/05/30 00:12:57;;;;;;;7.78;1.58;;;10.90;99.90;;;;;;5059782;28;20111;-84
2023/05/30 00:15:24;;;;;;;10.90;2.38;;;10.90;99.90;;;;;;5062941;28;20036;-84
2023/05/30 00:17:52;;;;;;;6.22;2.10;;;10.80;99.90;;;;;;5067090;28;20016;-84
2023/05/30 00:20:19;;;;;;;5.85;1.60;;;10.80;99.90;;;;;;5064738;28;20497;-84
2023/05/30 00:22:45;;;;;;;6.88;1.80;;;10.80;99.90;;;;;;5064568;28;20128;-84
2023/05/30 00:25:11;;;;;;;6.07;1.58;;;10.70;99.90;;;;;;5074781;28;20548;-83
2023/05/30 00:27:36;;;;;;;5.13;1.58;;;10.80;99.90;;;;;;5075954;28;20123;-83
2023/05/30 00:30:02;;;;;;;5.35;1.20;;;10.70;99.90;;;;;;5065722;28;20552;-84
2023/05/30 00:32:28;;;;;;;4.18;1.08;;;10.70;99.90;;;;;;5060737;28;20047;-84
2023/05/30 00:34:53;;;;;;;7.75;1.42;;;10.70;99.90;;;;;;5064956;28;21008;-85
2023/05/30 00:37:19;;;;;;;7.22;1.95;;;10.70;99.90;;;;;;5075914;28;20481;-83
2023/05/30 00:39:46;;;;;;;8.38;1.90;;;10.70;99.90;;;;;;5066741;28;20035;-84
2023/05/30 00:42:11;;;;;;;4.57;1.60;;;10.60;99.90;;;;;;5066241;28;20545;-84
2023/05/30 00:44:37;;;;;;;5.13;1.60;;;10.60;99.90;;;;;;5076630;28;20043;-84
2023/05/30 00:47:03;;;;;;;4.85;1.48;;;10.60;99.90;;;;;;5076179;28;20028;-84
2023/05/30 00:49:29;;;;;;;5.53;1.60;;;10.50;99.90;;;;;;5074953;28;20040;-84
2023/05/30 00:51:55;;;;;;;7.22;1.88;;;10.50;99.90;;;;;;5060590;28;20030;-84
2023/05/30 00:54:22;;;;;;;5.45;1.40;;;10.50;99.90;;;;;;5060446;28;20082;-84
2023/05/30 00:56:48;;;;;;;7.50;1.80;;;10.50;99.90;;;;;;5059416;28;20159;-85
2023/05/30 00:59:14;;;;;;;4.03;1.30;;;10.50;99.90;;;;;;5065027;28;20584;-84
2023/05/30 01:01:42;;;;;;;4.25;1.20;;;10.50;99.90;;;;;;5078033;28;20024;-85
2023/05/30 01:04:08;;;;;;;3.70;1.40;;;10.40;99.90;;;;;;5060204;28;20036;-84
2023/05/30 01:06:37;;;;;;;6.93;1.38;;;10.40;99.90;;;;;;5065158;28;20021;-84
2023/05/30 01:09:04;;;;;;;6.72;1.50;;;10.40;99.90;;;;;;5059141;28;20032;-83
2023/05/30 01:11:57;;;;;;;8.13;1.60;;;10.40;99.90;;;;;;5075287;28;20053;-83
2023/05/30 01:14:44;;;;;;;4.65;1.38;;;10.40;99.90;;;;;;5051218;28;20051;-83
2023/05/30 01:17:38;;;;;;;5.47;1.40;;;10.40;99.90;;;;;;5075092;28;20167;-84
2023/05/30 01:20:11;;;;;;;7.40;1.25;;;10.30;99.90;;;;;;5019795;28;20042;-83
2023/05/30 01:23:10;;;;;;;3.85;1.80;;;10.30;99.90;;;;;;5073910;28;20085;-84
2023/05/30 01:25:47;;;;;;;5.30;1.33;;;10.30;99.90;;;;;;5065029;28;20040;-84
2023/05/30 01:28:21;;;;;;;6.38;1.40;;;10.30;99.90;;;;;;5074099;28;20107;-83
2023/05/30 01:30:49;;;;;;;8.10;2.25;;;10.30;99.90;;;;;;5061279;28;20090;-84
2023/05/30 01:33:17;;;;;;;6.47;1.45;;;10.20;99.90;;;;;;5074989;28;20052;-84
2023/05/30 01:35:46;;;;;;;5.95;1.60;;;10.20;99.90;;;;;;5073197;28;20744;-84
2023/05/30 01:38:12;;;;;;;5.40;1.67;;;10.20;99.90;;;;;;5059179;28;20028;-82
2023/05/30 01:40:48;;;;;;;7.93;2.10;;;10.20;99.90;;;;;;5064746;28;20021;-84
2023/05/30 01:43:13;;;;;;;6.32;1.85;;;10.20;99.90;;;;;;5076035;28;20505;-84
2023/05/30 01:46:03;;;;;;;8.00;1.65;;;10.20;99.90;;;;;;5062118;28;20028;-84
2023/05/30 01:48:37;;;;;;;5.95;1.85;;;10.20;99.90;;;;;;5075116;28;20036;-83
2023/05/30 01:51:07;;;;;;;7.75;1.58;;;10.20;99.90;;;;;;5067946;28;20070;-83
2023/05/30 01:53:50;;;;;;;3.90;1.60;;;10.30;99.90;;;;;;5064175;28;20378;-83
2023/05/30 01:56:17;;;;;;;8.35;1.58;;;10.30;99.90;;;;;;5058634;28;20143;-83
2023/05/30 01:58:47;;;;;;;6.55;1.58;;;10.40;99.90;;;;;;5074001;28;20017;-83
2023/05/30 02:01:14;;;;;;;7.40;1.63;;;10.40;99.90;;;;;;5075545;28;20031;-82
2023/05/30 02:03:40;;;;;;;8.13;1.92;;;10.40;99.90;;;;;;5072659;28;20020;-82
2023/05/30 02:06:06;;;;;;;10.32;2.17;;;10.40;99.90;;;;;;5073333;28;20032;-82
2023/05/30 02:08:31;;;;;;;6.75;2.22;;;10.50;99.90;;;;;;5074318;28;20481;-82
2023/05/30 02:10:57;;;;;;;7.57;1.75;;;10.50;99.90;;;;;;5063944;28;20060;-83
2023/05/30 02:13:22;;;;;;;6.35;1.88;;;10.50;99.90;;;;;;5075208;28;20576;-84
2023/05/30 02:15:48;;;;;;;8.70;2.33;;;10.60;99.90;;;;;;5074505;28;20036;-83
2023/05/30 02:18:13;;;;;;;5.65;1.55;;;10.60;99.90;;;;;;5073619;28;20024;-84
2023/05/30 02:20:39;;;;;;;5.20;1.70;;;10.60;99.90;;;;;;5073743;28;20024;-84
2023/05/30 02:23:04;;;;;;;6.85;1.75;;;10.60;99.90;;;;;;5056940;28;20043;-84
2023/05/30 02:25:30;;;;;;;6.97;1.83;;;10.60;99.90;;;;;;5074785;28;20020;-83
2023/05/30 02:27:56;;;;;;;5.07;1.27;;;10.60;99.90;;;;;;5061921;28;20496;-84
2023/05/30 02:30:21;;;;;;;8.77;2.55;;;10.60;99.90;;;;;;5059684;28;20085;-82
2023/05/30 02:32:47;;;;;;;7.63;1.88;;;10.70;99.90;;;;;;5061679;28;20040;-83
2023/05/30 02:35:13;;;;;;;4.85;1.58;;;10.60;99.90;;;;;;5073121;28;20036;-84
2023/05/30 02:37:39;;;;;;;7.28;1.50;;;10.60;99.90;;;;;;5062922;28;20016;-84
2023/05/30 02:40:09;;;;;;;7.50;1.70;;;10.70;99.90;;;;;;5073467;28;20575;-84
2023/05/30 02:42:35;;;;;;;5.78;1.33;;;10.70;99.90;;;;;;5064070;28;20063;-84
2023/05/30 02:45:01;;;;;;;5.97;1.67;;;10.70;99.90;;;;;;5073974;28;20486;-84
2023/05/30 02:47:27;;;;;;;6.85;1.90;;;10.70;99.90;;;;;;5072956;28;20048;-84
2023/05/30 02:49:52;;;;;;;5.82;2.00;;;10.70;99.90;;;;;;5057560;28;20894;-84
2023/05/30 02:52:19;;;;;;;6.00;1.73;;;10.70;99.90;;;;;;5062745;28;20021;-84
2023/05/30 02:54:46;;;;;;;9.52;1.67;;;10.70;99.90;;;;;;5062814;28;20028;-83
2023/05/30 02:57:12;;;;;;;6.82;1.50;;;10.70;99.90;;;;;;5063483;28;20031;-84
2023/05/30 02:59:37;;;;;;;7.20;1.85;;;10.70;99.90;;;;;;5073946;28;20035;-84
2023/05/30 03:02:03;;;;;;;8.05;1.52;;;10.70;99.90;;;;;;5062101;28;20112;-83
2023/05/30 03:04:29;;;;;;;8.00;1.98;;;10.70;99.90;;;;;;5057311;28;20043;-83
2023/05/30 03:06:55;;;;;;;6.97;1.85;;;10.80;99.90;;;;;;5072610;28;20064;-83
2023/05/30 03:09:21;;;;;;;11.68;1.95;;;10.70;99.90;;;;;;5062443;28;20051;-83
2023/05/30 03:11:47;;;;;;;5.43;1.73;;;10.70;99.90;;;;;;5062324;28;20159;-83
2023/05/30 03:14:12;;;;;;;7.88;1.52;;;10.70;99.90;;;;;;5059042;28;20081;-83
2023/05/30 03:16:39;;;;;;;5.93;1.55;;;10.70;99.90;;;;;;5060890;28;20021;-83
2023/05/30 03:19:04;;;;;;;6.00;2.00;;;10.70;99.90;;;;;;5063074;28;20032;-83
2023/05/30 03:21:32;;;;;;;6.60;1.75;;;10.70;99.90;;;;;;5057029;28;20466;-83
2023/05/30 03:23:58;;;;;;;8.32;1.80;;;10.70;99.90;;;;;;5056659;28;20516;-82
2023/05/30 03:26:25;;;;;;;7.18;2.05;;;10.70;99.90;;;;;;5073695;28;20031;-83
2023/05/30 03:28:51;;;;;;;9.18;2.08;;;10.70;99.90;;;;;;5074610;28;20419;-83
2023/05/30 03:31:18;;;;;;;6.75;1.40;;;10.70;99.90;;;;;;5073344;28;20024;-83
2023/05/30 03:33:44;;;;;;;6.13;1.60;;;10.70;99.90;;;;;;5062431;28;20028;-82
2023/05/30 03:36:10;;;;;;;4.30;1.40;;;10.70;99.90;;;;;;5072020;28;20474;-83
2023/05/30 03:38:37;;;;;;;5.28;1.65;;;10.80;99.90;;;;;;5072601;28;20107;-84
2023/05/30 03:41:03;;;;;;;6.25;2.05;;;10.80;99.90;;;;;;5074046;28;20069;-83
2023/05/30 03:43:29;;;;;;;7.10;2.20;;;10.80;99.90;;;;;;5062164;28;20055;-83
2023/05/30 03:45:55;;;;;;;3.70;1.60;;;10.80;99.90;;;;;;5063826;28;20364;-84
2023/05/30 03:48:20;;;;;;;8.30;2.35;;;10.90;99.90;;;;;;5055732;28;20085;-83
2023/05/30 03:50:46;;;;;;;8.05;2.00;;;10.90;99.90;;;;;;5055002;28;20094;-84
2023/05/30 03:53:11;;;;;;;7.20;1.80;;;10.90;99.90;;;;;;5072367;28;20028;-83
2023/05/30 03:55:37;;;;;;;6.13;1.85;;;11.00;99.90;;;;;;5062779;28;20110;-84
2023/05/30 03:58:02;;;;;;;5.13;1.90;;;11.00;99.90;;;;;;5074037;28;20046;-83
2023/05/30 04:00:28;;;;;;;5.78;2.30;;;11.10;99.90;;;;;;5072890;28;20024;-83
2023/05/30 04:02:54;;;;;;;9.45;2.92;;;11.10;99.90;;;;;;5057831;28;20028;-83
2023/05/30 04:05:20;;;;;;;8.25;2.15;;;11.20;99.90;;;;;;5056157;28;20026;-84
2023/05/30 04:07:47;;;;;;;7.57;2.03;;;11.20;99.90;;;;;;5071878;28;20039;-84
2023/05/30 04:10:12;;;;;;;5.97;2.20;;;11.30;99.90;;;;;;5056937;28;20024;-83
2023/05/30 04:12:38;;;;;;;7.32;2.15;;;11.30;99.90;;;;;;5073775;28;20742;-83
2023/05/30 04:15:04;;;;;;;5.50;2.15;;;11.30;99.90;;;;;;5071968;28;20032;-83
2023/05/30 04:17:30;;;;;;;6.82;1.92;;;11.30;99.90;;;;;;5072670;28;20475;-84
2023/05/30 04:19:56;;;;;;;6.35;2.40;;;11.30;99.90;;;;;;5060452;28;20020;-83
2023/05/30 04:22:22;;;;;;;6.28;2.17;;;11.40;99.90;;;;;;5072288;28;20092;-83
2023/05/30 04:24:47;;;;;;;6.88;2.63;;;11.30;99.90;;;;;;5057125;28;20430;-83
2023/05/30 04:27:13;;;;;;;6.55;1.85;;;11.40;99.90;;;;;;5058474;28;20032;-82
2023/05/30 04:29:40;;;;;;;7.20;2.22;;;11.40;99.90;;;;;;5072842;28;20071;-84
2023/05/30 04:32:06;;;;;;;5.78;2.70;;;11.40;99.90;;;;;;5072835;28;20086;-84
2023/05/30 04:34:32;;;;;;;8.25;2.38;;;11.40;99.90;;;;;;5071309;28;20500;-83
2023/05/30 04:36:58;;;;;;;7.68;2.72;;;11.50;99.90;;;;;;5050072;28;20036;-82
2023/05/30 04:39:23;;;;;;;5.40;2.50;;;11.50;99.90;;;;;;5055587;28;22844;-82
2023/05/30 04:41:54;;;;;;;5.90;2.65;;;11.60;99.90;;;;;;5055313;28;20118;-83
2023/05/30 04:44:20;;;;;;;6.72;2.75;;;11.60;99.90;;;;;;5043418;28;20402;-85
2023/05/30 04:46:46;;;;;;;6.47;3.35;;;11.60;99.90;;;;;;5067956;28;20035;-84
2023/05/30 04:49:14;;;;;;;6.75;3.00;;;11.60;99.90;;;;;;5070943;28;20055;-83
2023/05/30 04:51:40;;;;;;;7.38;2.47;;;11.60;99.90;;;;;;5067576;28;20118;-83
2023/05/30 04:54:05;;;;;;;7.80;3.00;;;11.60;99.90;;;;;;5058282;28;20109;-84
2023/05/30 04:56:31;;;;;;;6.07;3.05;;;11.60;99.90;;;;;;5073290;28;20032;-83
2023/05/30 04:58:57;;;;;;;8.75;3.03;;;11.70;99.90;;;;;;5059282;28;20031;-83
2023/05/30 05:01:23;;;;;;;7.60;2.83;;;11.70;99.90;;;;;;5056079;28;20907;-83
2023/05/30 05:03:50;;;;;;;6.47;2.60;;;11.80;99.90;;;;;;5071109;28;20028;-83
2023/05/30 05:06:16;;;;;;;5.38;2.83;;;11.80;99.90;;;;;;5071750;28;20052;-82
2023/05/30 05:08:41;;;;;;;7.05;3.45;;;11.80;99.90;;;;;;5073603;28;20569;-84
2023/05/30 05:11:08;;;;;;;9.40;3.20;;;11.80;99.90;;;;;;5072804;28;20653;-83
2023/05/30 05:13:34;;;;;;;8.65;3.25;;;11.90;99.90;;;;;;5065595;28;20511;-82
2023/05/30 05:16:06;;;;;;;4.55;2.50;;;11.90;99.90;;;;;;5067417;28;20036;-84
2023/05/30 05:18:32;;;;;;;5.43;3.00;;;11.90;99.90;;;;;;5073478;28;20036;-83
2023/05/30 05:20:57;;;;;;;7.32;3.72;;;11.90;99.90;;;;;;5058736;28;20016;-82
2023/05/30 05:23:23;;;;;;;8.75;3.53;;;12.00;99.90;;;;;;5064109;28;20467;-83
2023/05/30 05:25:49;;;;;;;9.65;3.58;;;11.90;99.90;;;;;;5076218;28;20537;-81
2023/05/30 05:28:15;;;;;;;5.78;2.83;;;11.90;99.90;;;;;;5064389;28;20024;-82
2023/05/30 05:30:40;;;;;;;7.35;3.03;;;12.00;99.90;;;;;;5071730;28;20490;-82
2023/05/30 05:33:07;;;;;;;8.07;3.03;;;12.00;99.90;;;;;;5061739;28;20036;-83
2023/05/30 05:35:33;;;;;;;6.15;2.60;;;12.10;99.90;;;;;;5055880;28;20382;-81
2023/05/30 05:37:59;;;;;;;6.45;2.80;;;12.20;99.90;;;;;;5059140;28;20024;-82
2023/05/30 05:40:25;;;;;;;6.45;2.85;;;12.20;99.90;;;;;;5062735;28;20073;-81
2023/05/30 05:42:51;;;;;;;5.78;2.30;;;12.30;99.90;;;;;;5071965;28;20103;-80
2023/05/30 05:45:17;;;;;;;10.52;3.20;;;12.30;99.90;;;;;;5074558;28;20035;-82
2023/05/30 05:47:42;;;;;;;8.68;3.05;;;12.30;99.90;;;;;;5072372;28;20051;-81
2023/05/30 05:50:08;;;;;;;8.23;3.10;;;12.40;99.90;;;;;;5062810;28;22344;-82
2023/05/30 05:52:33;;;;;;;5.93;2.60;;;12.40;99.90;;;;;;5057653;28;20807;-82
2023/05/30 05:54:59;;;;;;;6.07;2.45;;;12.50;99.90;;;;;;5064114;28;20443;-82
2023/05/30 05:57:25;;;;;;;5.38;2.33;;;12.50;99.90;;;;;;5075216;28;20928;-83
2023/05/30 05:59:50;;;;;;;5.63;2.15;;;12.60;99.90;;;;;;5061458;28;20046;-83
2023/05/30 06:02:16;;;;;;;5.40;2.70;;;12.60;99.90;;;;;;5058947;28;20446;-81
2023/05/30 06:04:41;;;;;;;7.53;2.53;;;12.70;99.90;;;;;;5075510;28;20028;-82
2023/05/30 06:07:07;;;;;;;5.93;2.50;;;12.70;99.90;;;;;;5076045;28;20098;-82
2023/05/30 06:09:34;;;;;;;5.45;2.83;;;12.90;99.90;;;;;;5064795;28;20043;-81
2023/05/30 06:12:00;;;;;;;6.50;2.78;;;12.90;99.90;;;;;;5075700;28;20056;-81
2023/05/30 06:14:26;;;;;;;7.03;2.58;;;12.90;99.90;;;;;;5074479;28;20584;-83
2023/05/30 06:16:52;;;;;;;5.95;2.70;;;12.90;99.90;;;;;;5057340;28;20027;-82
2023/05/30 06:19:18;;;;;;;6.60;2.40;;;12.90;99.90;;;;;;5062450;28;20031;-81
2023/05/30 06:21:44;;;;;;;5.40;2.60;;;12.90;99.90;;;;;;5060413;28;20040;-82
2023/05/30 06:24:09;;;;;;;5.88;1.90;;;12.90;99.90;;;;;;5074868;28;20027;-81
2023/05/30 06:26:35;;;;;;;5.70;2.60;;;13.00;99.90;;;;;;5060673;28;20473;-83
2023/05/30 06:29:00;;;;;;;6.40;2.70;;;13.10;99.90;;;;;;5073531;28;20397;-82
2023/05/30 06:31:26;;;;;;;7.60;2.70;;;13.10;99.90;;;;;;5073259;28;20064;-81
2023/05/30 06:33:51;;;;;;;6.72;2.53;;;13.20;99.90;;;;;;5076658;28;20043;-83
2023/05/30 06:36:18;;;;;;;5.50;2.60;;;13.20;99.90;;;;;;5062106;28;20028;-82
2023/05/30 06:38:43;;;;;;;5.10;2.15;;;13.30;99.90;;;;;;5077267;28;20024;-84
2023/05/30 06:41:09;;;;;;;5.93;2.20;;;13.40;99.90;;;;;;5062179;28;20417;-83
2023/05/30 06:43:35;;;;;;;7.22;2.45;;;13.40;99.90;;;;;;5063961;28;20124;-84
2023/05/30 06:46:00;;;;;;;6.03;2.10;;;13.40;99.90;;;;;;5074619;28;20032;-82
2023/05/30 06:48:26;;;;;;;5.00;2.28;;;13.50;99.90;;;;;;5075578;28;20222;-84
2023/05/30 06:50:51;;;;;;;6.50;2.10;;;13.60;99.90;;;;;;5076425;28;20036;-84
2023/05/30 06:53:17;;;;;;;6.03;2.63;;;13.70;99.90;;;;;;5060926;28;20027;-82
2023/05/30 06:55:42;;;;;;;5.35;2.38;;;13.80;99.90;;;;;;5059440;28;20040;-84
2023/05/30 06:58:08;;;;;;;4.30;2.15;;;13.80;99.90;;;;;;5061916;28;20012;-84
2023/05/30 07:00:34;;;;;;;7.80;2.42;;;13.90;99.90;;;;;;5072738;28;20032;-84
2023/05/30 07:03:00;;;;;;;4.53;1.90;;;14.00;99.90;;;;;;5075690;28;20138;-82
2023/05/30 07:05:26;;;;;;;5.95;1.92;;;14.10;99.90;;;;;;5077049;28;20492;-84
2023/05/30 07:07:51;;;;;;;4.72;2.10;;;14.20;99.90;;;;;;5063412;28;20035;-83
2023/05/30 07:10:17;;;;;;;4.70;2.00;;;14.30;99.90;;;;;;5077668;28;20071;-83
2023/05/30 07:12:43;;;;;;;5.22;2.22;;;14.50;99.90;;;;;;5077293;28;20050;-84
2023/05/30 07:15:09;;;;;;;7.35;2.17;;;14.50;99.90;;;;;;5074436;28;20036;-84
2023/05/30 07:17:34;;;;;;;7.30;2.60;;;14.50;99.90;;;;;;5073678;28;20107;-83
2023/05/30 07:20:00;;;;;;;6.35;2.50;;;14.40;99.90;;;;;;5061536;28;20417;-83
2023/05/30 07:22:26;;;;;;;5.47;2.47;;;14.30;99.90;;;;;;5062639;28;20048;-82
2023/05/30 07:24:51;;;;;;;8.30;3.05;;;14.20;99.90;;;;;;5066255;28;20027;-82
2023/05/30 07:27:18;;;;;;;8.20;2.88;;;14.20;99.90;;;;;;5066110;28;20020;-82
2023/05/30 07:29:44;;;;;;;4.70;2.33;;;14.10;99.90;;;;;;5075379;28;20039;-83
2023/05/30 07:32:12;;;;;;;7.43;2.58;;;14.10;99.90;;;;;;5064182;28;20384;-81
2023/05/30 07:34:42;;;;;;;6.45;2.47;;;14.10;99.90;;;;;;5076879;28;20135;-82
2023/05/30 07:37:07;;;;;;;4.20;2.22;;;14.20;99.90;;;;;;5065516;28;20031;-82
2023/05/30 07:39:33;;;;;;;4.20;2.03;;;14.30;99.90;;;;;;5063394;28;20075;-82
2023/05/30 07:41:59;;;;;;;5.25;1.85;;;14.50;99.90;;;;;;5063970;28;20035;-81
2023/05/30 07:44:24;;;;;;;5.25;2.80;;;14.80;99.90;;;;;;5058872;28;20020;-83
2023/05/30 07:46:51;;;;;;;5.60;2.33;;;14.90;99.90;;;;;;5056162;28;20031;-82
2023/05/30 07:49:16;;;;;;;6.70;2.53;;;15.20;99.90;;;;;;5074467;28;20036;-83
2023/05/30 07:51:44;;;;;;;6.70;2.60;;;15.30;99.90;;;;;;5074446;28;20035;-81
2023/05/30 07:54:09;;;;;;;6.82;2.83;;;15.40;99.90;;;;;;5059960;28;20072;-81
2023/05/30 07:56:35;;;;;;;10.80;2.50;;;15.60;99.90;;;;;;5064709;28;20027;-84
2023/05/30 07:59:00;;;;;;;4.00;1.73;;;15.70;99.90;;;;;;5058146;28;20028;-82
2023/05/30 08:01:27;;;;;;;5.50;2.28;;;15.80;99.90;;;;;;5073807;28;20043;-83
2023/05/30 08:03:52;;;;;;;6.25;2.72;;;15.80;99.90;;;;;;5063043;28;20073;-83
2023/05/30 08:06:19;;;;;;;4.30;1.83;;;15.70;99.90;;;;;;5077446;28;20028;-83
2023/05/30 08:08:45;;;;;;;7.68;2.53;;;15.70;99.90;;;;;;5063601;28;20043;-84
2023/05/30 08:11:11;;;;;;;9.82;2.58;;;15.70;99.90;;;;;;5063244;28;20108;-84
2023/05/30 08:13:37;;;;;;;5.53;2.20;;;15.60;99.90;;;;;;5075029;28;20032;-83
2023/05/30 08:16:03;;;;;;;6.47;2.30;;;15.50;99.90;;;;;;5060537;28;20084;-83
2023/05/30 08:18:30;;;;;;;4.85;2.10;;;15.50;99.90;;;;;;5059611;28;20044;-84
2023/05/30 08:20:56;;;;;;;6.20;2.20;;;15.50;99.90;;;;;;5060173;28;20028;-83
2023/05/30 08:23:22;;;;;;;4.88;2.50;;;15.60;99.90;;;;;;5059218;28;20047;-84
2023/05/30 08:25:48;;;;;;;6.22;2.22;;;15.60;99.90;;;;;;5059395;28;20028;-82
2023/05/30 08:28:14;;;;;;;4.68;2.22;;;15.60;99.90;;;;;;5065456;28;20042;-81
2023/05/30 08:30:43;;;;;;;4.95;2.20;;;15.60;99.90;;;;;;5082408;28;20494;-83
2023/05/30 08:33:10;;;;;;;5.63;2.38;;;15.60;99.90;;;;;;5070663;28;20394;-84
2023/05/30 08:35:36;;;;;;;4.32;1.73;;;15.70;99.90;;;;;;5072153;28;20024;-83
2023/05/30 08:38:02;;;;;;;5.82;2.30;;;15.70;99.90;;;;;;5085039;28;20017;-82
2023/05/30 08:40:27;;;;;;;5.05;2.05;;;15.60;99.90;;;;;;5072481;28;20431;-81
2023/05/30 08:42:53;;;;;;;5.63;2.30;;;15.60;99.90;;;;;;5070236;28;20020;-81
2023/05/30 08:45:22;;;;;;;7.00;2.17;;;15.60;99.90;;;;;;5067739;28;20046;-82
2023/05/30 08:47:52;;;;;;;4.15;1.95;;;15.70;99.90;;;;;;5074236;28;20027;-82
2023/05/30 08:50:20;;;;;;;5.10;2.30;;;15.80;99.90;;;;;;5085773;28;20024;-84
2023/05/30 08:52:51;;;;;;;3.60;1.70;;;15.80;99.90;;;;;;5073767;28;20024;-82
2023/05/30 08:55:41;;;;;;;7.50;2.38;;;15.90;99.90;;;;;;5085782;28;20034;-82
2023/05/30 08:58:19;;;;;;;5.22;2.28;;;16.10;99.90;;;;;;5069252;28;20077;-84
2023/05/30 09:00:45;;;;;;;5.47;2.10;;;16.10;99.90;;;;;;5068658;28;20020;-82
2023/05/30 09:03:12;;;;;;;5.50;2.20;;;16.10;99.90;;;;;;5072017;28;20394;-82
2023/05/30 09:05:40;;;;;;;4.43;2.08;;;16.20;99.90;;;;;;5083769;28;20486;-82
2023/05/30 09:08:07;;;;;;;6.65;2.53;;;16.20;99.90;;;;;;5076124;28;20370;-81
2023/05/30 09:10:41;;;;;;;4.60;2.10;;;16.30;99.90;;;;;;5070506;28;20032;-83
2023/05/30 09:13:06;;;;;;;3.92;1.90;;;16.40;99.90;;;;;;5069175;28;20040;-83
2023/05/30 09:15:32;;;;;;;5.18;1.98;;;16.50;99.90;;;;;;5069171;28;20036;-82
2023/05/30 09:17:58;;;;;;;5.30;2.40;;;16.60;99.90;;;;;;5079491;28;20136;-82
2023/05/30 09:20:27;;;;;;;5.32;2.30;;;16.70;99.90;;;;;;5071545;28;20202;-81
2023/05/30 09:22:53;;;;;;;8.02;2.42;;;16.80;99.90;;;;;;5091387;28;20155;-81
2023/05/30 09:25:18;;;;;;;5.93;2.35;;;16.90;99.90;;;;;;5091831;28;20082;-80
2023/05/30 09:27:49;;;;;;;4.60;2.38;;;16.90;99.90;;;;;;5089522;28;20050;-82
2023/05/30 09:30:16;;;;;;;5.50;2.58;;;17.10;99.90;;;;;;5076999;28;20044;-82
2023/05/30 09:32:42;;;;;;;6.18;2.00;;;18.10;99.90;;;;;;5075773;28;20475;-84
2023/05/30 09:35:09;;;;;;;4.47;1.80;;;19.30;99.90;;;;;;5080534;28;20035;-84
2023/05/30 09:37:40;;;;;;;4.03;1.60;;;20.50;99.30;;;;;;5087047;28;20032;-82
2023/05/30 09:40:11;;;;;;;4.78;1.83;;;21.40;98.60;;;;;;5089291;28;20032;-83
2023/05/30 09:42:41;;;;;;;5.07;1.80;;;21.80;98.20;;;;;;5096395;28;20024;-81
2023/05/30 09:45:13;;;;;;;4.53;1.70;;;22.30;97.90;;;;;;5089771;28;21236;-82
2023/05/30 09:47:44;;;;;;;5.15;1.77;;;22.70;97.30;;;;;;5076833;28;20021;-84
2023/05/30 09:50:14;;;;;;;4.85;1.75;;;23.30;97.10;;;;;;5080433;28;20043;-82
2023/05/30 09:52:41;;;;;;;3.95;2.00;;;23.70;96.70;;;;;;5094626;28;20080;-83
2023/05/30 09:55:08;;;;;;;5.22;1.80;;;24.00;96.00;;;;;;5081235;28;20048;-78
2023/05/30 09:57:37;;;;;;;4.38;1.58;;;24.30;95.60;;;;;;5082713;28;20059;-80
2023/05/30 10:00:09;;;;;;;3.85;1.65;;;24.50;95.10;;;;;;5059562;28;20416;-78
2023/05/30 10:02:39;;;;;;;3.10;1.50;;;24.80;94.90;;;;;;5077474;28;20035;-79
2023/05/30 10:05:06;;;;;;;3.95;1.73;;;25.20;94.70;;;;;;5077949;28;20017;-79
2023/05/30 10:07:32;;;;;;;6.13;1.98;;;25.60;94.20;;;;;;5069174;28;20054;-79
2023/05/30 10:09:58;;;;;;;5.25;1.88;;;25.80;93.80;;;;;;5062878;28;20553;-78
2023/05/30 10:12:24;;;;;;;4.32;1.65;;;25.90;93.30;;;;;;5076090;28;20107;-83
2023/05/30 10:14:50;;;;;;;4.22;1.80;;;26.10;92.60;;;;;;5061724;28;20048;-84
2023/05/30 10:17:21;;;;;;;2.97;1.55;;;26.10;92.00;;;;;;5075888;28;20028;-83
2023/05/30 10:19:56;;;;;;;5.15;1.92;;;25.90;91.90;;;;;;5061057;28;20078;-83
2023/05/30 10:22:26;;;;;;;5.88;2.28;;;25.90;91.80;;;;;;5076256;28;20120;-83
2023/05/30 10:24:53;;;;;;;4.72;1.70;;;26.00;91.50;;;;;;5057862;28;20036;-82
2023/05/30 10:27:24;;;;;;;3.67;1.85;;;26.30;91.40;;;;;;5058195;28;20036;-83
2023/05/30 10:30:05;;;;;;;3.97;1.85;;;26.70;91.10;;;;;;5072729;28;20067;-84
2023/05/30 10:32:35;;;;;;;5.13;2.03;;;27.10;90.50;;;;;;5056748;28;20023;-83
2023/05/30 10:35:15;;;;;;;5.00;2.20;;;27.20;90.20;;;;;;5072130;28;20547;-84
2023/05/30 10:37:41;;;;;;;6.35;2.10;;;27.20;89.20;;;;;;5059830;28;20023;-82
2023/05/30 10:40:12;;;;;;;4.10;1.88;;;27.20;88.80;;;;;;5057030;28;20032;-81
2023/05/30 10:42:48;;;;;;;4.78;1.65;;;27.20;87.90;;;;;;5072118;28;20614;-83
2023/05/30 10:45:19;;;;;;;4.45;1.98;;;27.30;87.60;;;;;;5055069;28;20032;-83
2023/05/30 10:48:27;;;;;;;6.22;2.33;;;27.50;87.30;;;;;;5072387;28;20556;-83
2023/05/30 10:50:58;;;;;;;5.45;2.00;;;27.70;86.60;;;;;;5061403;28;20079;-84
2023/05/30 10:53:24;;;;;;;5.00;1.88;;;27.70;85.60;;;;;;5058125;28;20075;-84
2023/05/30 10:55:50;;;;;;;6.57;2.38;;;27.40;85.50;;;;;;5059705;28;20548;-84
2023/05/30 10:58:41;;;;;;;5.82;1.90;;;27.40;84.80;;;;;;5062464;28;20032;-83
2023/05/30 11:01:29;;;;;;;4.47;1.70;;;27.60;84.80;;;;;;5058884;28;20020;-83
2023/05/30 11:04:03;;;;;;;4.78;1.90;;;27.70;84.00;;;;;;5063502;28;20016;-87
2023/05/30 11:06:33;;;;;;;3.85;1.80;;;27.80;84.10;;;;;;5058839;28;20115;-85
2023/05/30 11:09:14;;;;;;;4.85;1.75;;;27.90;83.80;;;;;;5072651;28;20031;-86
2023/05/30 11:11:43;;;;;;;5.00;1.83;;;28.30;83.60;;;;;;5059838;28;20062;-85
2023/05/30 11:14:11;;;;;;;6.25;1.98;;;28.40;82.50;;;;;;5074488;28;20051;-85
2023/05/30 11:16:55;;;;;;;7.18;2.30;;;28.20;82.10;;;;;;5076322;28;20436;-86
2023/05/30 11:19:37;;;;;;;5.95;2.10;;;28.20;81.10;;;;;;5060365;28;20024;-88
2023/05/30 11:22:08;;;;;;;4.72;1.73;;;28.20;81.80;;;;;;5081687;28;20101;-88
2023/05/30 11:24:33;;;;;;;5.00;2.08;;;28.30;81.60;;;;;;5076215;28;20078;-86
2023/05/30 11:27:08;;;;;;;4.30;1.67;;;28.50;80.40;;;;;;5058915;28;20040;-85
2023/05/30 11:29:47;;;;;;;5.05;2.17;;;28.50;80.00;;;;;;5073896;28;20571;-86
2023/05/30 11:32:14;;;;;;;4.03;1.70;;;28.50;79.30;;;;;;5064408;28;20146;-86
2023/05/30 11:34:40;;;;;;;3.70;1.85;;;28.60;79.90;;;;;;5074790;28;20152;-86
2023/05/30 11:37:06;;;;;;;4.25;1.75;;;28.90;79.70;;;;;;5063111;28;20126;-86
2023/05/30 11:39:35;;;;;;;4.10;1.90;;;28.90;78.90;;;;;;5060342;28;20028;-87
2023/05/30 11:42:02;;;;;;;3.55;1.50;;;29.00;79.10;;;;;;5063492;28;20024;-88
2023/05/30 11:44:31;;;;;;;6.63;1.83;;;29.00;79.10;;;;;;5065689;28;20024;-87
2023/05/30 11:47:07;;;;;;;5.97;2.20;;;29.20;78.70;;;;;;5056335;28;20028;-86
2023/05/30 11:49:33;;;;;;;5.18;1.88;;;29.20;78.10;;;;;;5057113;28;20085;-86
2023/05/30 11:51:59;;;;;;;4.60;1.92;;;29.20;77.80;;;;;;5073102;28;20029;-84
2023/05/30 11:54:27;;;;;;;5.55;2.10;;;29.30;77.70;;;;;;5057872;28;20433;-87
2023/05/30 11:56:55;;;;;;;4.70;1.98;;;29.20;77.30;;;;;;5058151;28;20081;-88
2023/05/30 11:59:26;;;;;;;3.80;1.83;;;29.00;77.40;;;;;;5058453;28;20035;-88
2023/05/30 12:01:57;;;;;;;3.80;1.65;;;29.10;77.60;;;;;;5058614;28;20897;-86
2023/05/30 12:04:31;;;;;;;6.47;2.00;;;29.40;77.10;;;;;;5059736;28;22359;-88
2023/05/30 12:07:06;;;;;;;2.92;1.42;;;29.50;76.90;;;;;;5063884;28;20039;-87
2023/05/30 12:09:37;;;;;;;5.68;2.05;;;29.70;76.50;;;;;;5069373;28;20165;-87
2023/05/30 12:12:03;;;;;;;4.00;1.85;;;29.80;76.00;;;;;;5064762;28;20075;-87
2023/05/30 12:14:44;;;;;;;4.07;2.00;;;29.90;75.70;;;;;;5062298;28;20036;-86
2023/05/30 12:17:28;;;;;;;5.35;1.90;;;30.20;75.70;;;;;;5063801;28;20031;-86
2023/05/30 12:19:56;;;;;;;3.35;1.50;;;30.40;75.70;;;;;;5076218;28;20414;-87
2023/05/30 12:22:23;;;;;;;5.22;1.45;;;30.40;75.20;;;;;;5076210;28;20097;-88
2023/05/30 12:24:49;;;;;;;3.72;1.60;;;30.50;75.10;;;;;;5063993;28;20031;-88
2023/05/30 12:27:25;;;;;;;4.72;1.67;;;30.60;74.80;;;;;;5065011;28;20039;-87
2023/05/30 12:29:51;;;;;;;4.30;1.70;;;30.70;74.80;;;;;;5060799;28;20037;-86
2023/05/30 12:32:26;;;;;;;4.13;1.80;;;30.60;74.30;;;;;;5060863;28;20073;-88
2023/05/30 12:34:55;;;;;;;3.83;1.80;;;30.30;73.50;;;;;;5062532;28;20123;-87
2023/05/30 12:37:22;;;;;;;4.75;1.70;;;30.00;74.20;;;;;;5067132;28;20762;-88
2023/05/30 12:39:53;;;;;;;3.60;1.48;;;30.00;74.30;;;;;;5070254;28;20533;-86
2023/05/30 12:42:25;;;;;;;3.63;1.60;;;30.10;74.50;;;;;;5065822;28;20088;-87
2023/05/30 12:44:55;;;;;;;4.03;1.60;;;30.10;74.70;;;;;;5060502;28;20115;-87
2023/05/30 12:47:21;;;;;;;3.55;1.42;;;30.20;74.80;;;;;;5061401;28;20499;-86
2023/05/30 12:49:47;;;;;;;4.10;1.50;;;30.10;74.30;;;;;;5062246;28;20032;-88